createdAt,value
2019-05-02T00:01:35.856Z,34.90
2019-05-02T00:04:04.778Z,36.00
2019-05-02T00:06:37.897Z,36.10
2019-05-02T00:09:09.291Z,36.60
2019-05-02T00:11:36.914Z,37.20
2019-05-02T00:14:05.968Z,37.70
2019-05-02T00:16:35.399Z,40.50
2019-05-02T00:19:04.218Z,40.50
2019-05-02T00:21:37.777Z,42.10
2019-05-02T00:24:04.233Z,44.30
2019-05-02T00:26:32.980Z,46.90
2019-05-02T00:29:01.759Z,48.10
2019-05-02T00:31:30.850Z,50.10
2019-05-02T00:33:59.671Z,51.20
2019-05-02T00:36:28.478Z,52.30
2019-05-02T00:38:57.217Z,54.40
2019-05-02T00:41:25.970Z,55.40
2019-05-02T00:43:54.697Z,57.20
2019-05-02T00:46:23.517Z,57.40
2019-05-02T00:49:01.852Z,59.10
2019-05-02T00:51:30.756Z,59.20
2019-05-02T00:53:59.482Z,59.20
2019-05-02T00:56:28.223Z,59.80
2019-05-02T00:58:56.947Z,60.40
2019-05-02T01:01:31.130Z,60.80
2019-05-02T01:04:07.632Z,61.60
2019-05-02T01:06:36.463Z,62.20
2019-05-02T01:09:11.023Z,62.90
2019-05-02T01:11:37.730Z,62.20
2019-05-02T01:14:06.469Z,61.90
2019-05-02T01:16:35.264Z,61.50
2019-05-02T01:19:04.004Z,61.00
2019-05-02T01:21:33.953Z,61.10
2019-05-02T01:24:03.296Z,61.30
2019-05-02T01:26:40.578Z,61.20
2019-05-02T01:29:15.822Z,61.20
2019-05-02T01:31:55.890Z,61.80
2019-05-02T01:34:28.984Z,61.70
2019-05-02T01:37:05.142Z,62.10
2019-05-02T01:39:37.926Z,62.60
2019-05-02T01:42:05.374Z,63.20
2019-05-02T01:44:36.237Z,63.60
2019-05-02T01:47:04.659Z,64.70
2019-05-02T01:49:33.405Z,65.30
2019-05-02T01:52:02.142Z,65.50
2019-05-02T01:54:30.966Z,65.50
2019-05-02T01:57:03.831Z,65.70
2019-05-02T01:59:33.910Z,65.50
2019-05-02T02:02:00.559Z,65.50
2019-05-02T02:04:29.295Z,65.60
2019-05-02T02:06:58.047Z,66.10
2019-05-02T02:09:26.789Z,65.60
2019-05-02T02:11:55.524Z,65.60
2019-05-02T02:14:24.257Z,65.70
2019-05-02T02:16:52.997Z,65.70
2019-05-02T02:19:26.052Z,66.00
2019-05-02T02:22:05.467Z,66.30
2019-05-02T02:24:38.304Z,66.50
2019-05-02T02:27:06.223Z,67.90
2019-05-02T02:29:39.098Z,68.40
2019-05-02T02:32:05.521Z,69.00
2019-05-02T02:34:34.262Z,69.10
2019-05-02T02:37:05.608Z,70.20
2019-05-02T02:39:33.466Z,69.70
2019-05-02T02:42:02.202Z,69.60
2019-05-02T02:44:50.877Z,69.50
2019-05-02T02:47:21.218Z,69.40
2019-05-02T02:49:56.116Z,69.50
2019-05-02T02:52:20.560Z,69.40
2019-05-02T02:54:49.276Z,70.20
2019-05-02T02:57:26.041Z,70.40
2019-05-02T02:59:48.379Z,70.50
2019-05-02T03:02:17.114Z,70.70
2019-05-02T03:04:46.449Z,70.70
2019-05-02T03:07:24.627Z,71.20
2019-05-02T03:09:45.989Z,71.40
2019-05-02T03:12:22.083Z,71.60
2019-05-02T03:14:52.450Z,71.70
2019-05-02T03:17:26.008Z,72.00
2019-05-02T03:19:54.488Z,72.20
2019-05-02T03:22:22.250Z,72.60
2019-05-02T03:24:50.999Z,72.70
2019-05-02T03:27:19.742Z,72.70
2019-05-02T03:29:49.305Z,72.80
2019-05-02T03:32:31.810Z,73.00
2019-05-02T03:34:53.497Z,72.90
2019-05-02T03:37:21.718Z,73.20
2019-05-02T03:39:57.267Z,72.80
2019-05-02T03:42:20.924Z,73.50
2019-05-02T03:44:56.940Z,73.10
2019-05-02T03:47:20.041Z,73.30
2019-05-02T03:49:51.916Z,73.30
2019-05-02T03:52:19.527Z,73.60
2019-05-02T03:54:50.188Z,73.80
2019-05-02T03:57:25.181Z,73.70
2019-05-02T03:59:49.234Z,73.40
2019-05-02T04:02:20.380Z,73.70
2019-05-02T04:04:54.219Z,73.50
2019-05-02T04:07:19.825Z,73.50
2019-05-02T04:09:47.707Z,73.60
2019-05-02T04:12:21.334Z,74.10
2019-05-02T04:14:47.839Z,73.60
2019-05-02T04:17:17.045Z,72.60
2019-05-02T04:19:45.792Z,72.70
2019-05-02T04:22:15.478Z,72.70
2019-05-02T04:24:47.650Z,72.60
2019-05-02T04:27:13.841Z,72.60
2019-05-02T04:29:42.739Z,72.20
2019-05-02T04:32:14.345Z,72.20
2019-05-02T04:34:48.843Z,72.10
2019-05-02T04:37:17.940Z,71.50
2019-05-02T04:39:48.873Z,71.50
2019-05-02T04:42:22.094Z,71.50
2019-05-02T04:45:09.413Z,71.30
2019-05-02T04:47:22.148Z,71.40
2019-05-02T04:49:52.060Z,71.60
2019-05-02T04:52:21.410Z,71.40
2019-05-02T04:54:50.411Z,71.50
2019-05-02T04:57:19.286Z,71.20
2019-05-02T04:59:50.392Z,71.40
2019-05-02T05:02:21.328Z,71.00
2019-05-02T05:04:49.526Z,71.50
2019-05-02T05:07:18.437Z,70.20
2019-05-02T05:09:56.916Z,70.40
2019-05-02T05:12:19.456Z,70.00
2019-05-02T05:14:48.267Z,69.80
2019-05-02T05:17:19.723Z,69.60
2019-05-02T05:19:48.744Z,69.50
2019-05-02T05:22:18.445Z,69.30
2019-05-02T05:25:00.915Z,69.10
2019-05-02T05:27:29.747Z,69.00
2019-05-02T05:30:02.434Z,68.40
2019-05-02T05:32:31.781Z,68.50
2019-05-02T05:35:07.829Z,68.50
2019-05-02T05:37:33.596Z,67.50
2019-05-02T05:40:02.813Z,67.00
2019-05-02T05:42:33.327Z,66.90
2019-05-02T05:45:03.913Z,67.10
2019-05-02T05:47:33.778Z,67.10
2019-05-02T05:50:02.537Z,67.10
2019-05-02T05:52:33.210Z,66.70
2019-05-02T05:55:05.263Z,66.60
2019-05-02T05:57:35.283Z,66.30
2019-05-02T06:00:15.451Z,66.10
2019-05-02T06:02:52.815Z,65.70
2019-05-02T06:05:09.984Z,64.90
2019-05-02T06:07:41.816Z,64.30
2019-05-02T06:10:09.956Z,64.70
2019-05-02T06:12:40.203Z,64.60
2019-05-02T06:15:11.432Z,64.20
2019-05-02T06:17:40.101Z,63.70
2019-05-02T06:20:08.914Z,63.30
2019-05-02T06:22:37.690Z,63.40
2019-05-02T06:25:10.064Z,63.10
2019-05-02T06:27:40.114Z,63.20
2019-05-02T06:30:13.042Z,62.90
2019-05-02T06:32:45.411Z,62.80
2019-05-02T06:35:17.184Z,63.40
2019-05-02T06:37:49.921Z,62.10
2019-05-02T06:40:24.682Z,61.40
2019-05-02T06:42:53.477Z,61.40
2019-05-02T06:45:22.425Z,61.40
2019-05-02T06:47:51.239Z,61.50
2019-05-02T06:50:21.168Z,60.80
2019-05-02T06:52:50.017Z,61.10
2019-05-02T06:55:20.159Z,60.80
2019-05-02T06:57:56.992Z,60.70
2019-05-02T07:00:35.596Z,60.50
2019-05-02T07:02:56.887Z,61.30
2019-05-02T07:05:27.170Z,61.40
2019-05-02T07:07:56.328Z,61.50
2019-05-02T07:10:26.593Z,61.60
2019-05-02T07:13:09.435Z,62.60
2019-05-02T07:15:33.531Z,62.30
2019-05-02T07:18:10.704Z,62.90
2019-05-02T07:20:42.621Z,62.70
2019-05-02T07:23:16.236Z,62.60
2019-05-02T07:25:44.182Z,62.90
2019-05-02T07:28:13.920Z,62.90
2019-05-02T07:30:42.670Z,63.30
2019-05-02T07:33:11.392Z,63.80
2019-05-02T07:35:40.118Z,64.00
2019-05-02T07:38:08.928Z,64.60
2019-05-02T07:40:37.657Z,65.00
2019-05-02T07:43:13.447Z,65.30
2019-05-02T07:45:45.304Z,65.40
2019-05-02T07:48:17.874Z,65.60
2019-05-02T07:50:46.456Z,66.30
2019-05-02T07:53:14.672Z,65.40
2019-05-02T07:55:43.590Z,65.80
2019-05-02T07:58:12.397Z,66.70
2019-05-02T08:00:41.632Z,66.70
2019-05-02T08:03:11.495Z,66.40
2019-05-02T08:05:40.312Z,66.30
2019-05-02T08:08:10.446Z,66.70
2019-05-02T08:10:39.278Z,67.00
2019-05-02T08:13:12.105Z,66.80
2019-05-02T08:15:38.392Z,66.50
2019-05-02T08:18:07.129Z,66.20
2019-05-02T08:20:35.858Z,66.40
2019-05-02T08:23:06.103Z,66.60
2019-05-02T08:25:34.834Z,66.80
2019-05-02T08:28:10.028Z,67.10
2019-05-02T08:30:41.769Z,67.20
2019-05-02T08:33:10.667Z,68.30
2019-05-02T08:35:39.393Z,68.00
2019-05-02T08:38:12.484Z,67.50
2019-05-02T08:40:42.233Z,67.20
2019-05-02T08:43:10.968Z,66.90
2019-05-02T08:45:39.863Z,65.70
2019-05-02T08:48:10.219Z,65.50
2019-05-02T08:50:38.998Z,65.40
2019-05-02T08:53:07.731Z,64.80
2019-05-02T08:55:36.473Z,64.80
2019-05-02T08:58:14.008Z,64.20
2019-05-02T09:00:37.602Z,63.50
2019-05-02T09:03:06.923Z,62.60
2019-05-02T09:05:36.896Z,61.90
2019-05-02T09:08:09.198Z,61.70
2019-05-02T09:10:37.145Z,61.30
2019-05-02T09:13:06.912Z,61.10
2019-05-02T09:15:40.394Z,60.70
2019-05-02T09:18:06.037Z,60.30
2019-05-02T09:20:34.756Z,60.60
2019-05-02T09:23:03.490Z,60.90
2019-05-02T09:25:32.457Z,61.10
2019-05-02T09:28:01.838Z,61.30
2019-05-02T09:30:32.568Z,61.10
2019-05-02T09:33:02.808Z,61.10
2019-05-02T09:35:32.828Z,61.10
2019-05-02T09:38:02.121Z,61.70
2019-05-02T09:40:32.837Z,61.70
2019-05-02T09:43:04.770Z,61.70
2019-05-02T09:45:45.028Z,61.30
2019-05-02T09:48:17.083Z,61.60
2019-05-02T09:50:45.291Z,61.10
2019-05-02T09:53:20.771Z,61.20
2019-05-02T09:55:50.376Z,61.10
2019-05-02T09:58:21.059Z,61.00
2019-05-02T10:01:02.039Z,60.60
2019-05-02T10:03:31.897Z,60.30
2019-05-02T10:06:03.096Z,59.80
2019-05-02T10:08:38.379Z,59.80
2019-05-02T10:11:05.198Z,59.20
2019-05-02T10:13:34.132Z,60.00
2019-05-02T10:16:02.921Z,60.40
2019-05-02T10:18:33.193Z,61.00
2019-05-02T10:21:07.872Z,60.90
2019-05-02T10:23:34.111Z,60.90
2019-05-02T10:26:03.016Z,60.00
2019-05-02T10:28:32.339Z,60.60
2019-05-02T10:31:02.291Z,59.60
2019-05-02T10:33:33.727Z,59.50
2019-05-02T10:36:02.668Z,59.30
2019-05-02T10:38:32.572Z,59.10
2019-05-02T10:41:04.796Z,58.90
2019-05-02T10:43:33.041Z,58.90
2019-05-02T10:46:18.802Z,59.10
2019-05-02T10:48:56.227Z,58.60
2019-05-02T10:51:34.572Z,58.20
2019-05-02T10:54:05.036Z,57.80
2019-05-02T10:56:35.427Z,57.60
2019-05-02T10:59:04.429Z,57.30
2019-05-02T11:01:35.123Z,57.30
2019-05-02T11:04:12.855Z,57.10
2019-05-02T11:06:46.325Z,56.90
2019-05-02T11:09:16.708Z,56.50
2019-05-02T11:11:44.830Z,56.70
2019-05-02T11:14:24.210Z,56.70
2019-05-02T11:16:57.291Z,56.70
2019-05-02T11:19:46.000Z,56.50
2019-05-02T11:22:14.733Z,56.40
2019-05-02T11:24:43.498Z,56.50
2019-05-02T11:27:12.818Z,56.40
2019-05-02T11:29:42.521Z,57.20
2019-05-02T11:32:12.802Z,56.40
2019-05-02T11:34:42.098Z,55.80
2019-05-02T11:37:12.102Z,56.30
2019-05-02T11:39:48.979Z,56.10
2019-05-02T11:42:12.502Z,56.10
2019-05-02T11:44:43.850Z,56.40
2019-05-02T11:47:12.769Z,56.40
2019-05-02T11:49:46.779Z,56.30
2019-05-02T11:52:15.846Z,55.80
2019-05-02T11:54:48.324Z,56.10
2019-05-02T11:57:14.963Z,56.10
2019-05-02T11:59:44.260Z,56.10
2019-05-02T12:02:22.006Z,56.70
2019-05-02T12:04:52.478Z,56.80
2019-05-02T12:07:23.673Z,57.20
2019-05-02T12:09:57.101Z,57.40
2019-05-02T12:12:22.809Z,57.90
2019-05-02T12:14:53.229Z,58.30
2019-05-02T12:17:23.501Z,58.40
2019-05-02T12:19:52.381Z,59.80
2019-05-02T12:22:22.581Z,60.60
2019-05-02T12:24:51.930Z,60.50
2019-05-02T12:27:22.094Z,60.50
2019-05-02T12:29:58.010Z,60.50
2019-05-02T12:32:26.219Z,60.50
2019-05-02T12:34:57.052Z,60.70
2019-05-02T12:37:25.750Z,60.40
2019-05-02T12:39:54.522Z,60.50
2019-05-02T12:42:24.141Z,60.10
2019-05-02T12:44:53.392Z,60.40
2019-05-02T12:47:22.598Z,60.50
2019-05-02T12:49:51.906Z,60.60
2019-05-02T12:52:22.628Z,60.60
2019-05-02T12:54:52.584Z,61.30
2019-05-02T12:57:21.975Z,62.00
2019-05-02T12:59:52.887Z,62.80
2019-05-02T13:02:34.136Z,62.90
2019-05-02T13:05:05.817Z,62.90
2019-05-02T13:07:42.188Z,62.90
2019-05-02T13:10:13.171Z,63.20
2019-05-02T13:12:45.769Z,62.80
2019-05-02T13:15:16.006Z,63.00
2019-05-02T13:17:48.802Z,62.30
2019-05-02T13:20:18.048Z,62.00
2019-05-02T13:22:52.685Z,61.90
2019-05-02T13:25:27.234Z,61.80
2019-05-02T13:27:56.484Z,61.00
2019-05-02T13:30:45.043Z,60.60
2019-05-02T13:33:12.615Z,61.00
2019-05-02T13:35:43.275Z,60.00
2019-05-02T13:38:12.973Z,59.60
2019-05-02T13:40:43.634Z,58.90
2019-05-02T13:43:16.106Z,57.40
2019-05-02T13:45:49.716Z,57.40
2019-05-02T13:48:18.449Z,57.50
2019-05-02T13:50:47.237Z,58.00
2019-05-02T13:53:15.983Z,58.70
2019-05-02T13:56:02.775Z,59.10
2019-05-02T13:58:33.216Z,59.30
2019-05-02T14:01:03.428Z,59.80
2019-05-02T14:03:32.612Z,60.70
2019-05-02T14:06:02.960Z,61.00
2019-05-02T14:08:45.719Z,60.60
2019-05-02T14:11:32.608Z,59.40
2019-05-02T14:14:01.967Z,58.50
2019-05-02T14:16:32.076Z,58.20
2019-05-02T14:19:02.864Z,58.00
2019-05-02T14:21:32.199Z,57.00
2019-05-02T14:24:01.679Z,57.20
2019-05-02T14:26:32.709Z,57.20
2019-05-02T14:29:02.579Z,57.30
2019-05-02T14:31:32.349Z,57.20
2019-05-02T14:34:03.618Z,57.00
2019-05-02T14:36:32.601Z,57.70
2019-05-02T14:39:02.344Z,57.40
2019-05-02T14:41:40.929Z,56.30
2019-05-02T14:44:02.834Z,55.10
2019-05-02T14:46:37.391Z,54.80
2019-05-02T14:49:04.177Z,54.40
2019-05-02T14:51:36.322Z,53.40
2019-05-02T14:54:07.891Z,53.00
2019-05-02T14:56:37.719Z,53.00
2019-05-02T14:59:09.255Z,53.50
2019-05-02T15:01:38.153Z,54.40
2019-05-02T15:04:08.377Z,55.80
2019-05-02T15:06:38.383Z,56.30
2019-05-02T15:09:08.698Z,57.90
2019-05-02T15:11:39.110Z,59.10
2019-05-02T15:14:11.397Z,59.60
2019-05-02T15:16:42.235Z,59.30
2019-05-02T15:19:08.828Z,59.00
2019-05-02T15:21:47.059Z,58.00
2019-05-02T15:24:13.813Z,57.70
2019-05-02T15:26:42.638Z,57.70
2019-05-02T15:29:19.227Z,58.00
2019-05-02T15:31:57.986Z,58.50
2019-05-02T15:34:30.314Z,58.70
2019-05-02T15:36:59.194Z,58.20
2019-05-02T15:41:58.585Z,58.30
2019-05-02T15:44:27.313Z,58.40
2019-05-02T15:46:58.450Z,57.90
2019-05-02T15:49:26.508Z,58.10
2019-05-02T15:51:55.315Z,57.90
2019-05-02T15:54:24.127Z,57.80
2019-05-02T15:57:00.303Z,58.00
2019-05-02T15:59:37.395Z,58.20
2019-05-02T16:02:10.060Z,57.80
2019-05-02T16:04:41.720Z,58.00
2019-05-02T16:07:12.138Z,58.60
2019-05-02T16:09:41.675Z,57.90
2019-05-02T16:12:12.060Z,57.50
2019-05-02T16:14:42.470Z,56.70
2019-05-02T16:17:12.463Z,55.60
2019-05-02T16:19:43.316Z,55.00
2019-05-02T16:22:19.057Z,55.60
2019-05-02T16:24:49.105Z,55.10
2019-05-02T16:27:23.743Z,55.20
2019-05-02T16:29:48.563Z,55.20
2019-05-02T16:32:22.110Z,54.90
2019-05-02T16:34:54.694Z,54.70
2019-05-02T16:37:23.185Z,55.40
2019-05-02T16:39:51.922Z,55.20
2019-05-02T16:42:22.549Z,55.20
2019-05-02T16:44:52.240Z,55.10
2019-05-02T16:47:21.981Z,55.60
2019-05-02T16:49:53.285Z,55.60
2019-05-02T16:52:23.611Z,55.70
2019-05-02T16:54:52.785Z,56.60
2019-05-02T16:57:22.509Z,57.70
2019-05-02T16:59:53.953Z,58.20
2019-05-02T17:02:22.702Z,58.50
2019-05-02T17:04:54.646Z,58.60
2019-05-02T17:07:25.233Z,58.30
2019-05-02T17:09:55.588Z,57.90
2019-05-02T17:12:24.386Z,58.00
2019-05-02T17:15:13.725Z,58.20
2019-05-02T17:17:42.878Z,58.10
2019-05-02T17:20:16.518Z,58.30
2019-05-02T17:22:43.928Z,58.40
2019-05-02T17:25:14.285Z,58.90
2019-05-02T17:27:43.036Z,59.40
2019-05-02T17:30:13.216Z,58.50
2019-05-02T17:32:41.912Z,55.30
2019-05-02T17:35:14.641Z,53.30
2019-05-02T17:37:48.638Z,54.90
2019-05-02T17:40:16.822Z,55.50
2019-05-02T17:42:45.389Z,55.70
2019-05-02T17:45:14.862Z,55.90
2019-05-02T17:47:43.569Z,55.30
2019-05-02T17:50:19.503Z,55.40
2019-05-02T17:52:49.988Z,55.40
2019-05-02T17:55:21.669Z,55.90
2019-05-02T17:57:51.600Z,56.00
2019-05-02T18:00:24.556Z,56.30
2019-05-02T18:02:55.413Z,55.90
2019-05-02T18:05:26.558Z,55.80
2019-05-02T18:07:55.617Z,56.40
2019-05-02T18:10:27.584Z,56.80
2019-05-02T18:12:59.915Z,58.40
2019-05-02T18:15:29.964Z,59.10
2019-05-02T18:17:59.854Z,61.10
2019-05-02T18:20:29.097Z,58.80
2019-05-02T18:22:59.171Z,58.70
2019-05-02T18:25:27.890Z,58.60
2019-05-02T18:27:56.622Z,58.50
2019-05-02T18:30:26.959Z,59.80
2019-05-02T18:32:57.730Z,61.30
2019-05-02T18:35:26.156Z,62.20
2019-05-02T18:37:54.930Z,62.70
2019-05-02T18:40:27.733Z,63.10
2019-05-02T18:42:56.606Z,63.10
2019-05-02T18:45:28.559Z,62.20
2019-05-02T18:48:02.277Z,62.90
2019-05-02T18:50:31.919Z,62.30
2019-05-02T18:53:03.471Z,62.00
2019-05-02T18:55:31.776Z,61.20
2019-05-02T18:58:02.485Z,59.30
2019-05-02T19:00:36.146Z,59.10
2019-05-02T19:03:07.443Z,59.40
2019-05-02T19:05:36.554Z,59.20
2019-05-02T19:08:05.402Z,60.00
2019-05-02T19:10:37.123Z,59.60
2019-05-02T19:13:06.116Z,60.00
2019-05-02T19:15:39.502Z,59.30
2019-05-02T19:18:05.522Z,58.90
2019-05-02T19:20:37.172Z,57.80
2019-05-02T19:23:05.903Z,58.20
2019-05-02T19:25:34.648Z,57.90
2019-05-02T19:28:17.454Z,57.90
2019-05-02T19:30:46.246Z,57.80
2019-05-02T19:33:15.084Z,58.30
2019-05-02T19:35:46.929Z,58.10
2019-05-02T19:38:17.211Z,58.50
2019-05-02T19:40:44.556Z,58.10
2019-05-02T19:43:15.745Z,58.00
2019-05-02T19:45:45.788Z,58.20
2019-05-02T19:48:15.678Z,58.70
2019-05-02T19:50:44.533Z,58.90
2019-05-02T19:53:18.138Z,59.30
2019-05-02T19:55:43.715Z,59.30
2019-05-02T19:58:12.461Z,59.40
2019-05-02T20:00:45.894Z,59.80
2019-05-02T20:03:13.721Z,59.70
2019-05-02T20:05:42.772Z,60.20
2019-05-02T20:08:14.636Z,60.10
2019-05-02T20:10:42.347Z,60.50
2019-05-02T20:13:12.092Z,60.60
2019-05-02T20:15:45.153Z,60.60
2019-05-02T20:18:13.918Z,61.00
2019-05-02T20:20:46.850Z,60.90
2019-05-02T20:23:18.507Z,60.90
2019-05-02T20:25:46.070Z,61.10
2019-05-02T20:28:14.800Z,61.30
2019-05-02T20:30:43.531Z,62.00
2019-05-02T20:33:12.865Z,61.90
2019-05-02T20:35:42.147Z,62.10
2019-05-02T20:38:11.771Z,62.30
2019-05-02T20:40:42.615Z,62.70
2019-05-02T20:43:12.130Z,63.10
2019-05-02T20:45:41.071Z,63.60
2019-05-02T20:48:11.786Z,63.40
2019-05-02T20:50:42.291Z,63.20
2019-05-02T20:53:12.754Z,63.80
2019-05-02T20:55:41.669Z,63.50
2019-05-02T20:58:12.570Z,63.70
2019-05-02T21:00:42.688Z,63.70
2019-05-02T21:03:11.984Z,63.60
2019-05-02T21:05:45.680Z,63.60
2019-05-02T21:08:32.585Z,63.50
2019-05-02T21:11:03.199Z,63.50
2019-05-02T21:13:32.739Z,63.80
2019-05-02T21:16:01.829Z,63.80
2019-05-02T21:18:32.664Z,64.10
2019-05-02T21:21:01.242Z,64.10
2019-05-02T21:23:41.895Z,64.50
2019-05-02T21:26:01.868Z,64.50
2019-05-02T21:28:32.119Z,64.70
2019-05-02T21:31:02.919Z,65.30
2019-05-02T21:33:37.345Z,65.60
2019-05-02T21:36:06.644Z,65.70
2019-05-02T21:38:35.447Z,65.70
2019-05-02T21:41:07.587Z,66.10
2019-05-02T21:43:36.351Z,66.10
2019-05-02T21:46:05.070Z,65.90
2019-05-02T21:48:33.808Z,66.30
2019-05-02T21:51:13.163Z,66.30
2019-05-02T21:53:55.119Z,66.60
2019-05-02T21:56:21.850Z,67.10
2019-05-02T21:59:04.303Z,66.90
2019-05-02T22:01:35.015Z,67.70
2019-05-02T22:04:03.817Z,67.40
2019-05-02T22:06:32.643Z,67.50
2019-05-02T22:09:03.058Z,67.30
2019-05-02T22:11:32.089Z,67.30
2019-05-02T22:14:02.396Z,67.40
2019-05-02T22:16:32.677Z,67.60
2019-05-02T22:19:02.869Z,67.80
2019-05-02T22:21:34.667Z,68.10
2019-05-02T22:24:08.970Z,67.80
2019-05-02T22:26:32.879Z,68.00
2019-05-02T22:29:02.036Z,67.90
2019-05-02T22:31:32.405Z,67.90
2019-05-02T22:34:02.157Z,67.90
2019-05-02T22:36:32.436Z,67.70
2019-05-02T22:39:02.185Z,67.60
2019-05-02T22:41:32.619Z,68.20
2019-05-02T22:44:01.926Z,68.10
2019-05-02T22:46:45.796Z,67.80
2019-05-02T22:49:15.363Z,67.80
2019-05-02T22:51:44.610Z,67.70
2019-05-02T22:54:24.055Z,67.90
2019-05-02T22:56:43.769Z,68.10
2019-05-02T22:59:12.525Z,68.10
2019-05-02T23:01:42.155Z,68.00
2019-05-02T23:04:12.754Z,68.10
2019-05-02T23:06:43.916Z,68.90
2019-05-02T23:09:12.642Z,68.90
2019-05-02T23:11:42.579Z,68.80
2019-05-02T23:14:11.601Z,68.60
2019-05-02T23:16:42.777Z,68.70
2019-05-02T23:19:12.328Z,68.80
2019-05-02T23:21:42.241Z,68.70
2019-05-02T23:24:14.600Z,68.90
2019-05-02T23:27:00.067Z,69.10
2019-05-02T23:29:28.808Z,69.30
2019-05-02T23:31:57.596Z,69.70
2019-05-02T23:34:26.386Z,70.60
2019-05-02T23:36:55.087Z,69.90
2019-05-02T23:39:23.819Z,69.80
2019-05-02T23:41:54.535Z,69.90
2019-05-02T23:44:23.265Z,70.30
2019-05-02T23:46:51.974Z,70.20
2019-05-02T23:49:22.001Z,69.90
2019-05-02T23:51:50.938Z,70.20
2019-05-02T23:54:22.615Z,70.20
2019-05-02T23:56:51.345Z,70.50
2019-05-02T23:59:22.223Z,70.70
